createdAt,value
2018-08-06T00:03:51.501Z,101311.00
2018-08-06T00:08:55.605Z,101310.00
2018-08-06T00:13:59.709Z,101303.00
2018-08-06T00:19:03.877Z,101299.00
2018-08-06T00:24:08.021Z,101292.00
2018-08-06T00:29:12.134Z,101293.00
2018-08-06T00:34:16.331Z,101283.00
2018-08-06T00:39:20.501Z,101281.00
2018-08-06T00:44:24.617Z,101275.00
2018-08-06T00:49:28.726Z,101272.00
2018-08-06T00:54:32.886Z,101268.00
2018-08-06T00:59:36.729Z,101264.00
2018-08-06T01:04:40.577Z,101265.00
2018-08-06T01:09:44.689Z,101262.00
2018-08-06T01:14:48.863Z,101256.00
2018-08-06T01:19:52.941Z,101249.00
2018-08-06T01:24:57.093Z,101250.00
2018-08-06T01:30:01.192Z,101252.00
2018-08-06T01:35:06.197Z,101246.00
2018-08-06T01:40:14.595Z,101243.00
2018-08-06T01:45:18.695Z,101235.00
2018-08-06T01:50:22.799Z,101243.00
2018-08-06T01:55:26.965Z,101229.00
2018-08-06T02:00:31.101Z,101230.00
2018-08-06T02:05:35.265Z,101224.00
2018-08-06T02:10:39.368Z,101222.00
2018-08-06T02:15:43.479Z,101216.00
2018-08-06T02:20:47.350Z,101204.00
2018-08-06T02:25:51.457Z,101195.00
2018-08-06T02:30:55.550Z,101189.00
2018-08-06T02:35:59.392Z,101188.00
2018-08-06T02:41:03.497Z,101188.00
2018-08-06T02:46:07.933Z,101182.00
2018-08-06T02:51:12.046Z,101185.00
2018-08-06T02:56:16.183Z,101187.00
2018-08-06T03:01:20.321Z,101181.00
2018-08-06T03:06:24.173Z,101173.00
2018-08-06T03:11:28.311Z,101171.00
2018-08-06T03:16:32.431Z,101172.00
2018-08-06T03:21:36.657Z,101166.00
2018-08-06T03:26:47.378Z,101161.00
2018-08-06T03:31:51.473Z,101159.00
2018-08-06T03:36:55.573Z,101146.00
2018-08-06T03:41:59.705Z,101154.00
2018-08-06T03:47:03.757Z,101154.00
2018-08-06T03:52:08.049Z,101154.00
2018-08-06T03:57:11.868Z,101156.00
2018-08-06T04:02:15.962Z,101156.00
2018-08-06T04:07:20.026Z,101159.00
2018-08-06T04:12:24.093Z,101161.00
2018-08-06T04:17:28.774Z,101154.00
2018-08-06T04:22:32.863Z,101156.00
2018-08-06T04:27:37.343Z,101152.00
2018-08-06T04:32:41.824Z,101161.00
2018-08-06T04:37:46.120Z,101156.00
2018-08-06T04:42:49.945Z,101151.00
2018-08-06T04:47:53.762Z,101147.00
2018-08-06T04:52:57.824Z,101152.00
2018-08-06T04:58:01.882Z,101145.00
2018-08-06T05:03:12.193Z,101153.00
2018-08-06T05:08:16.265Z,101148.00
2018-08-06T05:13:20.298Z,101147.00
2018-08-06T05:18:24.422Z,101149.00
2018-08-06T05:23:44.567Z,101148.00
2018-08-06T05:28:49.450Z,101142.00
2018-08-06T05:33:54.098Z,101139.00
2018-08-06T05:38:57.901Z,101147.00
2018-08-06T05:44:01.719Z,101152.00
2018-08-06T05:49:05.802Z,101154.00
2018-08-06T05:54:09.947Z,101154.00
2018-08-06T05:59:13.756Z,101145.00
2018-08-06T06:04:17.846Z,101147.00
2018-08-06T06:09:21.933Z,101152.00
2018-08-06T06:14:25.762Z,101158.00
2018-08-06T06:19:29.565Z,101156.00
2018-08-06T06:24:33.410Z,101154.00
2018-08-06T06:29:37.467Z,101144.00
2018-08-06T06:34:41.634Z,101141.00
2018-08-06T06:39:45.670Z,101141.00
2018-08-06T06:44:49.486Z,101147.00
2018-08-06T06:49:53.542Z,101145.00
2018-08-06T06:54:57.685Z,101141.00
2018-08-06T07:00:01.816Z,101122.00
2018-08-06T07:05:06.940Z,101126.00
2018-08-06T07:10:12.499Z,101120.00
2018-08-06T07:15:17.539Z,101116.00
2018-08-06T07:20:21.917Z,101125.00
2018-08-06T07:25:26.010Z,101115.00
2018-08-06T07:30:30.055Z,101107.00
2018-08-06T07:35:34.138Z,101103.00
2018-08-06T07:40:38.218Z,101104.00
2018-08-06T07:45:42.414Z,101093.00
2018-08-06T07:50:46.666Z,101097.00
2018-08-06T07:55:50.875Z,101101.00
2018-08-06T08:00:54.722Z,101089.00
2018-08-06T08:05:58.826Z,101086.00
2018-08-06T08:11:02.659Z,101079.00
2018-08-06T08:16:06.962Z,101076.00
2018-08-06T08:21:11.030Z,101071.00
2018-08-06T08:26:15.078Z,101066.00
2018-08-06T08:31:19.158Z,101061.00
2018-08-06T08:36:22.982Z,101062.00
2018-08-06T08:41:26.798Z,101059.00
2018-08-06T08:46:30.612Z,101048.00
2018-08-06T08:51:34.662Z,101045.00
2018-08-06T08:56:38.814Z,101041.00
2018-08-06T09:01:42.861Z,101037.00
2018-08-06T09:06:46.925Z,101037.00
2018-08-06T09:11:51.479Z,101042.00
2018-08-06T09:16:55.566Z,101034.00
2018-08-06T09:21:59.634Z,101026.00
2018-08-06T09:27:03.697Z,101027.00
2018-08-06T09:32:07.786Z,101013.00
2018-08-06T09:37:11.864Z,101003.00
2018-08-06T09:42:15.937Z,101002.00
2018-08-06T09:47:21.059Z,100985.00
2018-08-06T09:52:24.899Z,100973.00
2018-08-06T09:57:28.721Z,100961.00
2018-08-06T10:02:32.806Z,100961.00
2018-08-06T10:07:36.621Z,100948.00
2018-08-06T10:12:40.882Z,100943.00
2018-08-06T10:17:45.802Z,100927.00
2018-08-06T10:22:49.749Z,100919.00
2018-08-06T10:27:53.833Z,100919.00
2018-08-06T10:32:57.901Z,100904.00
2018-08-06T10:38:01.962Z,100907.00
2018-08-06T10:43:06.095Z,100892.00
2018-08-06T10:48:10.188Z,100881.00
2018-08-06T10:53:14.241Z,100888.00
2018-08-06T10:58:18.299Z,100891.00
2018-08-06T11:03:22.466Z,100883.00
2018-08-06T11:08:26.298Z,100867.00
2018-08-06T11:13:30.376Z,100863.00
2018-08-06T11:18:34.246Z,100857.00
2018-08-06T11:23:38.063Z,100840.00
2018-08-06T11:28:41.886Z,100842.00
2018-08-06T11:33:45.951Z,100828.00
2018-08-06T11:38:50.019Z,100823.00
2018-08-06T11:43:54.133Z,100818.00
2018-08-06T11:48:58.235Z,100808.00
2018-08-06T11:54:02.234Z,100804.00
2018-08-06T11:59:06.045Z,100795.00
2018-08-06T12:04:10.119Z,100788.00
2018-08-06T12:09:14.197Z,100787.00
2018-08-06T12:14:18.239Z,100787.00
2018-08-06T12:19:22.300Z,100780.00
2018-08-06T12:24:26.365Z,100778.00
2018-08-06T12:29:30.442Z,100770.00
2018-08-06T12:34:34.597Z,100766.00
2018-08-06T12:39:38.699Z,100758.00
2018-08-06T12:44:42.780Z,100755.00
2018-08-06T12:49:46.844Z,100746.00
2018-08-06T12:54:50.988Z,100741.00
2018-08-06T12:59:55.140Z,100735.00
2018-08-06T13:04:59.009Z,100742.00
2018-08-06T13:10:04.650Z,100730.00
2018-08-06T13:15:10.822Z,100722.00
2018-08-06T13:20:14.637Z,100717.00
2018-08-06T13:25:18.719Z,100714.00
2018-08-06T13:30:22.742Z,100714.00
2018-08-06T13:35:26.793Z,100707.00
2018-08-06T13:40:30.854Z,100703.00
2018-08-06T13:45:34.693Z,100689.00
2018-08-06T13:50:38.758Z,100680.00
2018-08-06T13:55:42.917Z,100675.00
2018-08-06T14:00:46.734Z,100672.00
2018-08-06T14:05:50.642Z,100667.00
2018-08-06T14:10:54.467Z,100665.00
2018-08-06T14:15:58.276Z,100659.00
2018-08-06T14:21:02.353Z,100655.00
2018-08-06T14:26:06.176Z,100645.00
2018-08-06T14:31:10.254Z,100636.00
2018-08-06T14:36:14.336Z,100629.00
2018-08-06T14:41:18.399Z,100626.00
2018-08-06T14:46:23.190Z,100612.00
2018-08-06T14:51:27.255Z,100607.00
2018-08-06T14:56:31.327Z,100609.00
2018-08-06T15:01:35.406Z,100595.00
2018-08-06T15:06:39.454Z,100594.00
2018-08-06T15:11:44.027Z,100588.00
2018-08-06T15:16:48.099Z,100575.00
2018-08-06T15:21:52.290Z,100567.00
2018-08-06T15:26:56.844Z,100567.00
2018-08-06T15:32:00.713Z,100562.00
2018-08-06T15:37:04.493Z,100556.00
2018-08-06T15:42:08.581Z,100548.00
2018-08-06T15:47:12.650Z,100540.00
2018-08-06T15:52:16.754Z,100538.00
2018-08-06T15:57:20.853Z,100531.00
2018-08-06T16:02:24.674Z,100524.00
2018-08-06T16:07:28.775Z,100508.00
2018-08-06T16:12:32.852Z,100512.00
2018-08-06T16:17:36.992Z,100505.00
2018-08-06T16:22:41.372Z,100498.00
2018-08-06T16:27:45.567Z,100497.00
2018-08-06T16:32:50.043Z,100495.00
2018-08-06T16:37:56.075Z,100494.00
2018-08-06T16:43:00.407Z,100491.00
2018-08-06T16:48:04.629Z,100487.00
2018-08-06T16:53:09.030Z,100489.00
2018-08-06T16:58:13.108Z,100487.00
2018-08-06T17:03:16.933Z,100483.00
2018-08-06T17:08:20.905Z,100478.00
2018-08-06T17:13:24.970Z,100474.00
2018-08-06T17:18:28.802Z,100468.00
2018-08-06T17:23:32.860Z,100465.00
2018-08-06T17:28:36.949Z,100461.00
2018-08-06T17:33:41.110Z,100458.00
2018-08-06T17:38:45.236Z,100452.00
2018-08-06T17:43:49.040Z,100451.00
2018-08-06T17:48:53.278Z,100453.00
2018-08-06T17:53:57.381Z,100457.00
2018-08-06T17:59:01.197Z,100462.00
2018-08-06T18:04:05.030Z,100462.00
2018-08-06T18:09:11.599Z,100455.00
2018-08-06T18:14:15.481Z,100456.00
2018-08-06T18:19:19.301Z,100463.00
2018-08-06T18:24:23.459Z,100457.00
2018-08-06T18:29:27.524Z,100459.00
2018-08-06T18:34:31.587Z,100461.00
2018-08-06T18:39:35.389Z,100459.00
2018-08-06T18:44:39.630Z,100464.00
2018-08-06T18:49:43.710Z,100459.00
2018-08-06T18:54:47.785Z,100461.00
2018-08-06T18:59:51.862Z,100460.00
2018-08-06T19:04:56.537Z,100466.00
2018-08-06T19:10:00.666Z,100474.00
2018-08-06T19:15:04.912Z,100473.00
2018-08-06T19:20:08.995Z,100476.00
2018-08-06T19:25:18.382Z,100484.00
2018-08-06T19:30:26.565Z,100490.00
2018-08-06T19:35:30.419Z,100491.00
2018-08-06T19:40:34.237Z,100494.00
2018-08-06T19:45:38.171Z,100499.00
2018-08-06T19:50:43.587Z,100499.00
2018-08-06T19:55:52.902Z,100496.00
2018-08-06T20:00:56.974Z,100499.00
2018-08-06T20:06:01.033Z,100500.00
2018-08-06T20:11:07.031Z,100505.00
2018-08-06T20:16:10.853Z,100503.00
2018-08-06T20:21:14.983Z,100502.00
2018-08-06T20:26:19.067Z,100501.00
2018-08-06T20:31:22.895Z,100501.00
2018-08-06T20:36:26.982Z,100506.00
2018-08-06T20:41:31.016Z,100506.00
2018-08-06T20:46:35.776Z,100509.00
2018-08-06T20:51:40.820Z,100509.00
2018-08-06T20:56:44.937Z,100515.00
2018-08-06T21:01:49.438Z,100522.00
2018-08-06T21:06:53.624Z,100519.00
2018-08-06T21:11:57.481Z,100514.00
2018-08-06T21:17:01.351Z,100516.00
2018-08-06T21:22:05.587Z,100510.00
2018-08-06T21:27:09.470Z,100511.00
2018-08-06T21:32:13.334Z,100510.00
2018-08-06T21:37:17.183Z,100514.00
2018-08-06T21:42:21.172Z,100515.00
2018-08-06T21:47:25.081Z,100520.00
2018-08-06T21:52:28.985Z,100514.00
2018-08-06T21:57:33.096Z,100518.00
2018-08-06T22:02:37.318Z,100512.00
2018-08-06T22:07:41.176Z,100507.00
2018-08-06T22:12:45.290Z,100505.00
2018-08-06T22:17:49.412Z,100502.00
2018-08-06T22:22:53.760Z,100509.00
2018-08-06T22:27:57.838Z,100499.00
2018-08-06T22:33:01.699Z,100512.00
2018-08-06T22:38:05.582Z,100513.00
2018-08-06T22:43:09.466Z,100505.00
2018-08-06T22:48:13.542Z,100504.00
2018-08-06T22:53:17.641Z,100494.00
2018-08-06T22:58:21.717Z,100497.00
2018-08-06T23:03:25.814Z,100482.00
2018-08-06T23:08:29.904Z,100484.00
2018-08-06T23:13:33.978Z,100475.00
2018-08-06T23:18:37.800Z,100475.00
2018-08-06T23:23:41.618Z,100477.00
2018-08-06T23:28:45.710Z,100468.00
2018-08-06T23:33:49.797Z,100470.00
2018-08-06T23:38:54.010Z,100464.00
2018-08-06T23:43:57.862Z,100467.00
2018-08-06T23:49:01.964Z,100465.00
2018-08-06T23:54:06.098Z,100467.00
2018-08-06T23:59:10.185Z,100467.00
